ラスベガス の空港の天気 - METARとTAF

マッカラン国際空港 ( KLAS / LAS ) - アメリカ合衆国 ネバダ州ラスベガス
飛行場実況気象(Metar)
観測時間06/23 11:56 PDT (06/23 18:56 UTC)
風向・風速南東 3m/s
視程10km以上
天気現象
少しの雲 雲底高度 3660m
気温40℃
湿度5%
気圧1007.5hPa
METARKLAS 231856Z 13005KT 10SM FEW120 40/M07 A2986 RMK AO2 SLP075 T04001067
過去の天気等 Google飛行場航空写真 Wunderground天気予報

過去48時間のMETAR

飛行場予報(TAF)
発表時間: 6/23 10:21 PDT (6/23 17:21 UTC)
予報対象時間: 23日11時 PDT ~ 24日11時 PDT
風向・風速北東 5m/s 瞬間風速 6m/s
視程10km以上
なし
23日14時 PDT から
風向・風速東南東 3m/s
視程10km以上
なし
23日20時 PDT から
風向・風速南西 4m/s
視程10km以上
なし
24日4時 PDT から
風向・風速不定 3m/s
視程10km以上
なし
24日9時 PDT から
風向・風速北北東 3m/s
視程10km以上
なし
KLAS 231721Z 2318/2418 05009G12KT P6SM SKC
FM232100 11005KT P6SM SKC
FM240300 22007KT P6SM SKC
FM241100 VRB05KT P6SM SKC
FM241600 02006KT P6SM SKC